sensor_id;sensor_type;location;lat;lon;timestamp;pressure;altitude;pressure_sealevel;temperature;humidity
25638;BME280;13496;51.040;13.680;2022-07-05T00:03:00;100035.69;;;23.36;37.71
25638;BME280;13496;51.040;13.680;2022-07-05T00:08:02;100029.97;;;23.39;37.47
25638;BME280;13496;51.040;13.680;2022-07-05T00:13:05;100027.84;;;23.23;37.76
25638;BME280;13496;51.040;13.680;2022-07-05T00:18:07;100028.56;;;22.98;38.84
25638;BME280;13496;51.040;13.680;2022-07-05T00:23:09;100026.72;;;22.99;38.19
25638;BME280;13496;51.040;13.680;2022-07-05T00:28:11;100028.97;;;22.95;38.55
25638;BME280;13496;51.040;13.680;2022-07-05T00:33:14;100022.44;;;23.04;38.66
25638;BME280;13496;51.040;13.680;2022-07-05T00:38:16;100016.72;;;23.07;38.62
25638;BME280;13496;51.040;13.680;2022-07-05T00:43:18;100018.97;;;23.04;38.66
25638;BME280;13496;51.040;13.680;2022-07-05T00:48:20;100018.22;;;22.77;39.37
25638;BME280;13496;51.040;13.680;2022-07-05T00:53:21;100024.28;;;22.19;40.49
25638;BME280;13496;51.040;13.680;2022-07-05T00:58:23;100023.75;;;22.68;39.43
25638;BME280;13496;51.040;13.680;2022-07-05T01:03:25;100027.50;;;22.34;40.55
25638;BME280;13496;51.040;13.680;2022-07-05T01:08:29;100017.34;;;21.98;41.40
25638;BME280;13496;51.040;13.680;2022-07-05T01:13:32;100010.25;;;21.92;41.38
25638;BME280;13496;51.040;13.680;2022-07-05T01:18:34;100025.44;;;21.57;42.54
25638;BME280;13496;51.040;13.680;2022-07-05T01:23:36;100015.91;;;21.75;42.10
25638;BME280;13496;51.040;13.680;2022-07-05T01:28:38;100017.13;;;22.13;41.37
25638;BME280;13496;51.040;13.680;2022-07-05T01:33:39;100021.78;;;21.64;42.29
25638;BME280;13496;51.040;13.680;2022-07-05T01:38:41;100019.75;;;21.53;42.58
25638;BME280;13496;51.040;13.680;2022-07-05T01:43:43;100016.34;;;21.99;41.23
25638;BME280;13496;51.040;13.680;2022-07-05T01:48:45;100026.84;;;21.53;42.24
25638;BME280;13496;51.040;13.680;2022-07-05T01:53:52;100031.16;;;21.93;41.37
25638;BME280;13496;51.040;13.680;2022-07-05T01:58:55;100026.50;;;21.95;41.51
25638;BME280;13496;51.040;13.680;2022-07-05T02:03:56;100027.09;;;21.78;41.55
25638;BME280;13496;51.040;13.680;2022-07-05T02:09:00;100025.06;;;21.80;41.45
25638;BME280;13496;51.040;13.680;2022-07-05T02:14:02;100026.09;;;21.85;41.60
25638;BME280;13496;51.040;13.680;2022-07-05T02:19:08;100029.94;;;21.69;41.65
25638;BME280;13496;51.040;13.680;2022-07-05T02:24:13;100019.25;;;21.30;42.70
25638;BME280;13496;51.040;13.680;2022-07-05T02:29:26;100016.91;;;21.55;42.40
25638;BME280;13496;51.040;13.680;2022-07-05T02:34:29;100026.47;;;21.75;42.04
25638;BME280;13496;51.040;13.680;2022-07-05T02:39:33;100024.00;;;21.41;43.11
25638;BME280;13496;51.040;13.680;2022-07-05T02:44:36;100017.69;;;21.42;42.84
25638;BME280;13496;51.040;13.680;2022-07-05T02:49:38;100016.28;;;21.46;42.80
25638;BME280;13496;51.040;13.680;2022-07-05T02:54:42;100017.31;;;21.45;42.95
25638;BME280;13496;51.040;13.680;2022-07-05T02:59:47;100019.47;;;21.21;43.21
25638;BME280;13496;51.040;13.680;2022-07-05T03:04:49;100027.28;;;21.01;44.02
25638;BME280;13496;51.040;13.680;2022-07-05T03:09:51;100033.50;;;20.81;44.29
25638;BME280;13496;51.040;13.680;2022-07-05T03:14:53;100039.72;;;20.66;45.11
25638;BME280;13496;51.040;13.680;2022-07-05T03:19:57;100043.19;;;20.45;45.25
25638;BME280;13496;51.040;13.680;2022-07-05T03:25:00;100052.00;;;20.52;45.04
25638;BME280;13496;51.040;13.680;2022-07-05T03:30:04;100045.38;;;20.63;44.98
25638;BME280;13496;51.040;13.680;2022-07-05T03:35:09;100042.75;;;21.11;44.03
25638;BME280;13496;51.040;13.680;2022-07-05T03:40:12;100043.53;;;21.05;44.34
25638;BME280;13496;51.040;13.680;2022-07-05T03:45:14;100042.69;;;20.91;44.81
25638;BME280;13496;51.040;13.680;2022-07-05T03:50:16;100048.72;;;20.85;44.82
25638;BME280;13496;51.040;13.680;2022-07-05T03:55:19;100056.34;;;20.67;45.14
25638;BME280;13496;51.040;13.680;2022-07-05T04:00:22;100058.72;;;20.55;45.59
25638;BME280;13496;51.040;13.680;2022-07-05T04:05:32;100061.47;;;20.47;45.68
25638;BME280;13496;51.040;13.680;2022-07-05T04:10:34;100072.91;;;20.61;45.58
25638;BME280;13496;51.040;13.680;2022-07-05T04:15:37;100070.97;;;20.69;45.00
25638;BME280;13496;51.040;13.680;2022-07-05T04:20:41;100084.69;;;20.58;45.51
25638;BME280;13496;51.040;13.680;2022-07-05T04:25:45;100090.41;;;20.40;46.03
25638;BME280;13496;51.040;13.680;2022-07-05T04:31:07;100089.81;;;20.66;45.06
25638;BME280;13496;51.040;13.680;2022-07-05T04:36:15;100098.44;;;20.53;45.26
25638;BME280;13496;51.040;13.680;2022-07-05T04:41:17;100094.81;;;20.61;44.94
25638;BME280;13496;51.040;13.680;2022-07-05T04:46:19;100103.22;;;20.71;45.12
25638;BME280;13496;51.040;13.680;2022-07-05T04:51:24;100101.22;;;20.80;44.74
25638;BME280;13496;51.040;13.680;2022-07-05T04:56:26;100110.63;;;20.89;44.68
25638;BME280;13496;51.040;13.680;2022-07-05T05:01:28;100113.66;;;20.86;45.05
25638;BME280;13496;51.040;13.680;2022-07-05T05:06:29;100119.75;;;20.87;45.16
25638;BME280;13496;51.040;13.680;2022-07-05T05:11:31;100114.88;;;20.90;44.84
25638;BME280;13496;51.040;13.680;2022-07-05T05:16:33;100121.41;;;20.94;44.89
25638;BME280;13496;51.040;13.680;2022-07-05T05:21:35;100110.09;;;20.72;45.43
25638;BME280;13496;51.040;13.680;2022-07-05T05:26:36;100104.88;;;21.20;44.08
25638;BME280;13496;51.040;13.680;2022-07-05T05:31:38;100117.19;;;21.41;43.71
25638;BME280;13496;51.040;13.680;2022-07-05T05:36:40;100109.50;;;21.53;42.97
25638;BME280;13496;51.040;13.680;2022-07-05T05:41:42;100107.94;;;21.72;43.14
25638;BME280;13496;51.040;13.680;2022-07-05T05:46:43;100107.75;;;21.87;42.89
25638;BME280;13496;51.040;13.680;2022-07-05T05:51:45;100102.50;;;22.00;42.64
25638;BME280;13496;51.040;13.680;2022-07-05T05:56:47;100108.81;;;22.12;42.29
25638;BME280;13496;51.040;13.680;2022-07-05T06:01:49;100110.47;;;22.27;42.28
25638;BME280;13496;51.040;13.680;2022-07-05T06:06:50;100117.59;;;22.33;41.84
25638;BME280;13496;51.040;13.680;2022-07-05T06:11:52;100115.97;;;22.45;41.81
25638;BME280;13496;51.040;13.680;2022-07-05T06:16:54;100114.31;;;22.57;41.97
25638;BME280;13496;51.040;13.680;2022-07-05T06:21:55;100110.44;;;22.66;42.05
25638;BME280;13496;51.040;13.680;2022-07-05T06:26:57;100125.06;;;22.76;42.00
25638;BME280;13496;51.040;13.680;2022-07-05T06:31:59;100130.34;;;22.82;42.20
25638;BME280;13496;51.040;13.680;2022-07-05T06:37:01;100137.25;;;22.90;41.89
25638;BME280;13496;51.040;13.680;2022-07-05T06:42:03;100136.66;;;22.94;41.93
25638;BME280;13496;51.040;13.680;2022-07-05T06:47:05;100136.47;;;23.03;41.69
25638;BME280;13496;51.040;13.680;2022-07-05T06:52:06;100127.09;;;23.07;42.04
25638;BME280;13496;51.040;13.680;2022-07-05T06:57:09;100128.88;;;23.13;41.83
25638;BME280;13496;51.040;13.680;2022-07-05T07:02:10;100124.59;;;23.18;41.68
25638;BME280;13496;51.040;13.680;2022-07-05T07:07:12;100126.38;;;23.25;41.55
25638;BME280;13496;51.040;13.680;2022-07-05T07:12:32;100121.28;;;23.30;41.94
25638;BME280;13496;51.040;13.680;2022-07-05T07:17:34;100120.44;;;23.36;41.60
25638;BME280;13496;51.040;13.680;2022-07-05T07:22:36;100125.13;;;23.40;41.65
25638;BME280;13496;51.040;13.680;2022-07-05T07:27:45;100123.25;;;23.48;41.69
25638;BME280;13496;51.040;13.680;2022-07-05T07:32:47;100117.09;;;23.54;41.73
25638;BME280;13496;51.040;13.680;2022-07-05T07:37:49;100116.47;;;23.58;41.46
25638;BME280;13496;51.040;13.680;2022-07-05T07:42:50;100117.69;;;23.62;41.44
25638;BME280;13496;51.040;13.680;2022-07-05T07:47:52;100110.97;;;23.66;41.55
25638;BME280;13496;51.040;13.680;2022-07-05T07:52:54;100113.78;;;23.72;40.81
25638;BME280;13496;51.040;13.680;2022-07-05T07:57:55;100113.94;;;23.77;41.21
25638;BME280;13496;51.040;13.680;2022-07-05T08:02:57;100117.81;;;23.81;40.98
25638;BME280;13496;51.040;13.680;2022-07-05T08:07:59;100112.91;;;23.84;40.69
25638;BME280;13496;51.040;13.680;2022-07-05T08:13:02;100118.13;;;23.91;40.79
25638;BME280;13496;51.040;13.680;2022-07-05T08:18:04;100116.09;;;23.93;40.55
25638;BME280;13496;51.040;13.680;2022-07-05T08:23:25;100122.81;;;23.96;40.18
25638;BME280;13496;51.040;13.680;2022-07-05T08:28:26;100110.75;;;24.00;39.86
25638;BME280;13496;51.040;13.680;2022-07-05T08:33:29;100114.38;;;24.05;40.04
25638;BME280;13496;51.040;13.680;2022-07-05T08:38:31;100101.28;;;24.10;39.85
25638;BME280;13496;51.040;13.680;2022-07-05T08:43:35;100102.47;;;24.14;39.98
25638;BME280;13496;51.040;13.680;2022-07-05T08:48:38;100108.97;;;24.19;39.41
25638;BME280;13496;51.040;13.680;2022-07-05T08:53:44;100102.19;;;24.23;39.46
25638;BME280;13496;51.040;13.680;2022-07-05T08:58:47;100106.03;;;24.27;39.41
25638;BME280;13496;51.040;13.680;2022-07-05T09:03:51;100102.97;;;24.30;39.21
25638;BME280;13496;51.040;13.680;2022-07-05T09:08:55;100105.19;;;24.33;38.93
25638;BME280;13496;51.040;13.680;2022-07-05T09:13:57;100097.59;;;24.36;38.61
25638;BME280;13496;51.040;13.680;2022-07-05T09:19:06;100087.16;;;24.42;38.58
25638;BME280;13496;51.040;13.680;2022-07-05T09:24:10;100091.25;;;24.44;38.69
25638;BME280;13496;51.040;13.680;2022-07-05T09:29:14;100083.44;;;24.49;38.44
25638;BME280;13496;51.040;13.680;2022-07-05T09:34:18;100087.94;;;24.49;38.39
25638;BME280;13496;51.040;13.680;2022-07-05T09:44:35;100088.25;;;24.59;38.28
25638;BME280;13496;51.040;13.680;2022-07-05T09:49:41;100085.72;;;24.64;38.19
25638;BME280;13496;51.040;13.680;2022-07-05T09:55:02;100081.41;;;24.70;38.15
25638;BME280;13496;51.040;13.680;2022-07-05T10:05:12;100084.50;;;24.85;38.36
25638;BME280;13496;51.040;13.680;2022-07-05T10:10:16;100092.38;;;24.92;38.39
25638;BME280;13496;51.040;13.680;2022-07-05T10:15:24;100081.69;;;24.98;38.24
25638;BME280;13496;51.040;13.680;2022-07-05T10:20:39;100088.16;;;25.02;37.94
25638;BME280;13496;51.040;13.680;2022-07-05T10:25:49;100088.09;;;25.09;38.70
25638;BME280;13496;51.040;13.680;2022-07-05T10:30:51;100095.66;;;25.12;38.82
25638;BME280;13496;51.040;13.680;2022-07-05T10:35:53;100089.66;;;25.17;38.58
25638;BME280;13496;51.040;13.680;2022-07-05T10:40:58;100087.06;;;25.10;38.27
25638;BME280;13496;51.040;13.680;2022-07-05T10:46:02;100089.66;;;25.17;37.68
25638;BME280;13496;51.040;13.680;2022-07-05T10:56:11;100076.06;;;25.25;37.70
25638;BME280;13496;51.040;13.680;2022-07-05T11:06:28;100077.72;;;25.26;36.83
25638;BME280;13496;51.040;13.680;2022-07-05T11:11:48;100083.22;;;25.24;37.11
25638;BME280;13496;51.040;13.680;2022-07-05T11:22:09;100074.94;;;25.32;36.85
25638;BME280;13496;51.040;13.680;2022-07-05T11:27:11;100079.25;;;25.33;36.42
25638;BME280;13496;51.040;13.680;2022-07-05T11:37:20;100070.97;;;25.53;36.45
25638;BME280;13496;51.040;13.680;2022-07-05T11:42:25;100072.94;;;25.58;36.37
25638;BME280;13496;51.040;13.680;2022-07-05T11:47:27;100078.53;;;25.68;36.41
25638;BME280;13496;51.040;13.680;2022-07-05T11:52:31;100071.53;;;25.74;36.46
25638;BME280;13496;51.040;13.680;2022-07-05T11:57:33;100070.34;;;25.70;36.32
25638;BME280;13496;51.040;13.680;2022-07-05T12:02:42;100063.41;;;25.69;36.02
25638;BME280;13496;51.040;13.680;2022-07-05T12:07:51;100054.25;;;25.65;36.34
25638;BME280;13496;51.040;13.680;2022-07-05T12:12:53;100061.19;;;25.66;36.55
25638;BME280;13496;51.040;13.680;2022-07-05T12:17:55;100065.03;;;25.70;36.45
25638;BME280;13496;51.040;13.680;2022-07-05T12:22:57;100047.44;;;25.69;36.52
25638;BME280;13496;51.040;13.680;2022-07-05T12:28:01;100050.00;;;25.75;35.92
25638;BME280;13496;51.040;13.680;2022-07-05T12:33:06;100055.81;;;25.84;36.01
25638;BME280;13496;51.040;13.680;2022-07-05T12:38:19;100051.47;;;25.90;35.56
25638;BME280;13496;51.040;13.680;2022-07-05T12:43:21;100048.22;;;25.88;35.89
25638;BME280;13496;51.040;13.680;2022-07-05T12:48:30;100046.16;;;25.90;35.69
25638;BME280;13496;51.040;13.680;2022-07-05T12:53:33;100053.53;;;25.88;35.61
25638;BME280;13496;51.040;13.680;2022-07-05T12:58:55;100042.34;;;25.97;35.56
25638;BME280;13496;51.040;13.680;2022-07-05T13:04:05;100043.03;;;26.04;34.95
25638;BME280;13496;51.040;13.680;2022-07-05T13:09:08;100032.41;;;26.04;35.29
25638;BME280;13496;51.040;13.680;2022-07-05T13:14:10;100034.81;;;26.06;35.14
25638;BME280;13496;51.040;13.680;2022-07-05T13:19:12;100029.75;;;26.16;35.54
25638;BME280;13496;51.040;13.680;2022-07-05T13:24:14;100033.09;;;26.12;34.90
25638;BME280;13496;51.040;13.680;2022-07-05T13:29:15;100030.09;;;26.20;34.92
25638;BME280;13496;51.040;13.680;2022-07-05T13:34:18;100031.50;;;26.11;34.99
25638;BME280;13496;51.040;13.680;2022-07-05T13:39:20;100030.69;;;26.22;35.39
25638;BME280;13496;51.040;13.680;2022-07-05T13:44:22;100023.84;;;26.26;35.40
25638;BME280;13496;51.040;13.680;2022-07-05T13:49:24;100020.47;;;26.30;35.19
25638;BME280;13496;51.040;13.680;2022-07-05T13:54:28;100019.06;;;26.40;35.46
25638;BME280;13496;51.040;13.680;2022-07-05T13:59:29;100021.53;;;26.41;35.12
25638;BME280;13496;51.040;13.680;2022-07-05T14:04:31;100024.63;;;26.38;34.75
25638;BME280;13496;51.040;13.680;2022-07-05T14:09:34;100030.22;;;26.37;34.97
25638;BME280;13496;51.040;13.680;2022-07-05T14:14:36;100022.31;;;26.42;35.28
25638;BME280;13496;51.040;13.680;2022-07-05T14:19:38;100020.22;;;26.44;35.11
25638;BME280;13496;51.040;13.680;2022-07-05T14:24:39;100016.53;;;26.45;35.54
25638;BME280;13496;51.040;13.680;2022-07-05T14:29:42;100014.59;;;26.52;35.10
25638;BME280;13496;51.040;13.680;2022-07-05T14:34:44;100013.88;;;26.57;35.12
25638;BME280;13496;51.040;13.680;2022-07-05T14:39:45;100005.78;;;26.63;34.63
25638;BME280;13496;51.040;13.680;2022-07-05T14:44:47;99994.75;;;26.71;34.58
25638;BME280;13496;51.040;13.680;2022-07-05T14:49:49;99992.75;;;26.78;34.52
25638;BME280;13496;51.040;13.680;2022-07-05T14:54:50;99990.69;;;26.69;34.64
25638;BME280;13496;51.040;13.680;2022-07-05T14:59:52;99985.16;;;26.70;34.70
25638;BME280;13496;51.040;13.680;2022-07-05T15:04:54;99989.75;;;26.75;34.16
25638;BME280;13496;51.040;13.680;2022-07-05T15:09:55;99979.31;;;26.85;34.49
25638;BME280;13496;51.040;13.680;2022-07-05T15:14:57;99978.59;;;26.90;34.75
25638;BME280;13496;51.040;13.680;2022-07-05T15:19:59;99977.22;;;26.87;34.05
25638;BME280;13496;51.040;13.680;2022-07-05T15:25:01;99975.13;;;26.89;34.55
25638;BME280;13496;51.040;13.680;2022-07-05T15:30:04;99981.50;;;26.88;34.21
25638;BME280;13496;51.040;13.680;2022-07-05T15:35:06;99981.13;;;26.96;34.26
25638;BME280;13496;51.040;13.680;2022-07-05T15:40:08;99972.09;;;26.97;34.15
25638;BME280;13496;51.040;13.680;2022-07-05T15:45:11;99969.97;;;26.99;34.28
25638;BME280;13496;51.040;13.680;2022-07-05T15:50:12;99973.81;;;27.03;33.97
25638;BME280;13496;51.040;13.680;2022-07-05T15:55:14;99979.47;;;27.07;34.22
25638;BME280;13496;51.040;13.680;2022-07-05T16:00:16;99979.22;;;27.09;33.82
25638;BME280;13496;51.040;13.680;2022-07-05T16:05:17;99970.16;;;27.10;33.85
25638;BME280;13496;51.040;13.680;2022-07-05T16:10:19;99968.13;;;27.12;33.36
25638;BME280;13496;51.040;13.680;2022-07-05T16:15:24;99957.06;;;27.20;33.13
25638;BME280;13496;51.040;13.680;2022-07-05T16:20:44;99960.31;;;27.22;33.44
25638;BME280;13496;51.040;13.680;2022-07-05T16:25:46;99957.13;;;27.25;33.62
25638;BME280;13496;51.040;13.680;2022-07-05T16:30:48;99958.28;;;27.29;33.53
25638;BME280;13496;51.040;13.680;2022-07-05T16:35:49;99949.81;;;27.32;33.30
25638;BME280;13496;51.040;13.680;2022-07-05T16:40:51;99947.63;;;27.29;33.60
25638;BME280;13496;51.040;13.680;2022-07-05T16:45:53;99948.19;;;27.31;33.15
25638;BME280;13496;51.040;13.680;2022-07-05T16:50:55;99947.63;;;27.29;33.22
25638;BME280;13496;51.040;13.680;2022-07-05T16:55:56;99940.47;;;27.30;33.12
25638;BME280;13496;51.040;13.680;2022-07-05T17:00:58;99940.34;;;27.24;33.27
25638;BME280;13496;51.040;13.680;2022-07-05T17:06:00;99945.94;;;27.23;33.01
25638;BME280;13496;51.040;13.680;2022-07-05T17:11:02;99942.78;;;27.26;32.59
25638;BME280;13496;51.040;13.680;2022-07-05T17:16:04;99940.94;;;27.26;32.76
25638;BME280;13496;51.040;13.680;2022-07-05T17:21:06;99939.06;;;27.27;32.71
25638;BME280;13496;51.040;13.680;2022-07-05T17:26:14;99939.63;;;27.29;32.57
25638;BME280;13496;51.040;13.680;2022-07-05T17:31:17;99944.47;;;27.32;32.62
25638;BME280;13496;51.040;13.680;2022-07-05T17:36:20;99940.94;;;27.26;33.09
25638;BME280;13496;51.040;13.680;2022-07-05T17:41:21;99937.94;;;27.23;32.99
25638;BME280;13496;51.040;13.680;2022-07-05T17:46:24;99936.69;;;27.14;32.84
25638;BME280;13496;51.040;13.680;2022-07-05T17:51:26;99941.00;;;27.15;32.74
25638;BME280;13496;51.040;13.680;2022-07-05T17:56:28;99948.41;;;27.13;32.52
25638;BME280;13496;51.040;13.680;2022-07-05T18:01:29;99950.50;;;27.11;32.88
25638;BME280;13496;51.040;13.680;2022-07-05T18:06:31;99952.50;;;27.03;32.78
25638;BME280;13496;51.040;13.680;2022-07-05T18:11:34;99967.66;;;27.03;32.98
25638;BME280;13496;51.040;13.680;2022-07-05T18:16:35;99968.69;;;27.02;32.62
25638;BME280;13496;51.040;13.680;2022-07-05T18:21:38;99968.84;;;26.95;33.02
25638;BME280;13496;51.040;13.680;2022-07-05T18:26:40;99967.47;;;26.93;33.15
25638;BME280;13496;51.040;13.680;2022-07-05T18:31:42;99977.00;;;26.89;32.70
25638;BME280;13496;51.040;13.680;2022-07-05T18:36:43;99981.19;;;26.85;32.89
25638;BME280;13496;51.040;13.680;2022-07-05T18:41:46;99982.91;;;26.79;33.15
25638;BME280;13496;51.040;13.680;2022-07-05T18:46:48;99982.59;;;26.75;33.07
25638;BME280;13496;51.040;13.680;2022-07-05T18:51:49;99982.50;;;26.70;32.81
25638;BME280;13496;51.040;13.680;2022-07-05T18:56:51;99986.34;;;26.63;32.68
25638;BME280;13496;51.040;13.680;2022-07-05T19:01:53;100003.59;;;26.48;32.49
25638;BME280;13496;51.040;13.680;2022-07-05T19:06:55;100005.56;;;26.41;32.47
25638;BME280;13496;51.040;13.680;2022-07-05T19:12:16;100012.84;;;26.34;32.74
25638;BME280;13496;51.040;13.680;2022-07-05T19:17:36;100003.25;;;26.33;32.75
25638;BME280;13496;51.040;13.680;2022-07-05T19:22:38;100014.13;;;26.20;33.04
25638;BME280;13496;51.040;13.680;2022-07-05T19:27:40;100022.47;;;26.12;32.93
25638;BME280;13496;51.040;13.680;2022-07-05T19:32:42;100034.72;;;26.13;32.77
25638;BME280;13496;51.040;13.680;2022-07-05T19:37:44;100033.09;;;26.12;32.61
25638;BME280;13496;51.040;13.680;2022-07-05T19:42:45;100037.25;;;26.08;32.81
25638;BME280;13496;51.040;13.680;2022-07-05T19:47:50;100043.50;;;26.01;33.06
25638;BME280;13496;51.040;13.680;2022-07-05T19:52:52;100055.38;;;25.99;33.11
25638;BME280;13496;51.040;13.680;2022-07-05T19:57:54;100057.25;;;25.98;33.50
25638;BME280;13496;51.040;13.680;2022-07-05T20:02:55;100059.44;;;25.90;33.29
25638;BME280;13496;51.040;13.680;2022-07-05T20:07:57;100063.13;;;25.89;33.95
25638;BME280;13496;51.040;13.680;2022-07-05T20:12:59;100065.72;;;25.77;33.59
25638;BME280;13496;51.040;13.680;2022-07-05T20:18:01;100074.28;;;25.67;33.89
25638;BME280;13496;51.040;13.680;2022-07-05T20:23:03;100071.97;;;25.71;33.48
25638;BME280;13496;51.040;13.680;2022-07-05T20:28:05;100078.06;;;25.59;34.17
25638;BME280;13496;51.040;13.680;2022-07-05T20:33:07;100082.94;;;25.63;33.84
25638;BME280;13496;51.040;13.680;2022-07-05T20:38:09;100091.00;;;25.56;33.72
25638;BME280;13496;51.040;13.680;2022-07-05T20:43:11;100097.88;;;25.45;34.37
25638;BME280;13496;51.040;13.680;2022-07-05T20:48:12;100093.91;;;25.36;34.25
25638;BME280;13496;51.040;13.680;2022-07-05T20:53:14;100096.63;;;25.48;34.21
25638;BME280;13496;51.040;13.680;2022-07-05T20:58:16;100096.66;;;25.29;34.45
25638;BME280;13496;51.040;13.680;2022-07-05T21:03:18;100098.16;;;25.25;34.63
25638;BME280;13496;51.040;13.680;2022-07-05T21:08:19;100093.63;;;25.26;34.47
25638;BME280;13496;51.040;13.680;2022-07-05T21:13:21;100108.97;;;25.24;34.79
25638;BME280;13496;51.040;13.680;2022-07-05T21:18:23;100104.72;;;25.23;34.78
25638;BME280;13496;51.040;13.680;2022-07-05T21:23:24;100119.03;;;25.22;35.07
25638;BME280;13496;51.040;13.680;2022-07-05T21:28:26;100119.03;;;25.22;35.09
25638;BME280;13496;51.040;13.680;2022-07-05T21:33:30;100111.81;;;25.10;35.26
25638;BME280;13496;51.040;13.680;2022-07-05T21:38:31;100116.91;;;24.87;35.34
25638;BME280;13496;51.040;13.680;2022-07-05T21:43:33;100115.00;;;24.76;35.50
25638;BME280;13496;51.040;13.680;2022-07-05T21:48:35;100120.38;;;24.69;35.70
25638;BME280;13496;51.040;13.680;2022-07-05T21:53:37;100129.50;;;24.55;35.42
25638;BME280;13496;51.040;13.680;2022-07-05T21:58:39;100125.59;;;24.57;35.84
25638;BME280;13496;51.040;13.680;2022-07-05T22:03:59;100121.19;;;24.51;35.82
25638;BME280;13496;51.040;13.680;2022-07-05T22:09:19;100108.78;;;24.38;35.80
25638;BME280;13496;51.040;13.680;2022-07-05T22:14:21;100113.09;;;24.14;36.11
25638;BME280;13496;51.040;13.680;2022-07-05T22:19:23;100112.53;;;24.06;36.46
25638;BME280;13496;51.040;13.680;2022-07-05T22:24:27;100113.13;;;24.08;36.38
25638;BME280;13496;51.040;13.680;2022-07-05T22:29:29;100107.72;;;23.96;36.41
25638;BME280;13496;51.040;13.680;2022-07-05T22:34:31;100124.03;;;23.93;36.81
25638;BME280;13496;51.040;13.680;2022-07-05T22:39:32;100157.47;;;24.26;36.27
25638;BME280;13496;51.040;13.680;2022-07-05T22:44:35;100203.09;;;24.34;36.29
25638;BME280;13496;51.040;13.680;2022-07-05T22:49:37;100206.91;;;24.45;35.83
25638;BME280;13496;51.040;13.680;2022-07-05T22:54:38;100209.72;;;24.50;35.98
25638;BME280;13496;51.040;13.680;2022-07-05T22:59:40;100226.06;;;24.47;36.89
25638;BME280;13496;51.040;13.680;2022-07-05T23:04:42;100247.75;;;24.37;37.81
25638;BME280;13496;51.040;13.680;2022-07-05T23:09:44;100250.19;;;24.07;39.21
25638;BME280;13496;51.040;13.680;2022-07-05T23:14:45;100288.13;;;24.01;39.69
25638;BME280;13496;51.040;13.680;2022-07-05T23:19:47;100292.31;;;23.64;41.12
25638;BME280;13496;51.040;13.680;2022-07-05T23:24:49;100301.34;;;23.23;42.70
25638;BME280;13496;51.040;13.680;2022-07-05T23:30:00;100302.88;;;22.38;45.04
25638;BME280;13496;51.040;13.680;2022-07-05T23:35:03;100316.63;;;22.20;46.19
25638;BME280;13496;51.040;13.680;2022-07-05T23:40:05;100316.97;;;22.04;46.67
25638;BME280;13496;51.040;13.680;2022-07-05T23:45:08;100315.91;;;22.46;45.93
25638;BME280;13496;51.040;13.680;2022-07-05T23:50:10;100318.94;;;21.95;46.97
25638;BME280;13496;51.040;13.680;2022-07-05T23:55:11;100317.25;;;21.46;48.83
